createdAt,value
2022-11-08T00:00:18.668Z,18.77
2022-11-08T00:02:45.612Z,18.76
2022-11-08T00:05:12.009Z,18.78
2022-11-08T00:07:38.345Z,18.77
2022-11-08T00:10:04.837Z,18.78
2022-11-08T00:12:31.093Z,18.78
2022-11-08T00:14:57.859Z,18.77
2022-11-08T00:17:24.179Z,18.77
2022-11-08T00:19:50.577Z,18.77
2022-11-08T00:22:17.403Z,18.76
2022-11-08T00:24:43.637Z,18.76
2022-11-08T00:27:10.870Z,18.75
2022-11-08T00:29:37.143Z,18.74
2022-11-08T00:32:03.471Z,18.74
2022-11-08T00:34:31.133Z,18.73
2022-11-08T00:36:57.420Z,18.73
2022-11-08T00:39:24.019Z,18.74
2022-11-08T00:41:50.312Z,18.72
2022-11-08T00:44:16.627Z,18.72
2022-11-08T00:46:42.956Z,18.72
2022-11-08T00:49:09.255Z,18.71
2022-11-08T00:51:35.501Z,18.71
2022-11-08T00:54:01.838Z,18.70
2022-11-08T00:56:28.167Z,18.68
2022-11-08T00:58:55.497Z,18.68
2022-11-08T01:01:21.841Z,18.66
2022-11-08T01:03:48.206Z,18.66
2022-11-08T01:06:14.469Z,18.65
2022-11-08T01:08:40.826Z,18.64
2022-11-08T01:11:07.127Z,18.64
2022-11-08T01:13:33.348Z,18.62
2022-11-08T01:15:59.710Z,18.62
2022-11-08T01:18:26.282Z,18.62
2022-11-08T01:20:52.525Z,18.62
2022-11-08T01:23:18.778Z,18.61
2022-11-08T01:25:45.117Z,18.60
2022-11-08T01:28:11.356Z,18.59
2022-11-08T01:30:37.655Z,18.60
2022-11-08T01:33:03.967Z,18.59
2022-11-08T01:35:30.281Z,18.59
2022-11-08T01:37:56.549Z,18.59
2022-11-08T01:40:22.811Z,18.60
2022-11-08T01:42:49.575Z,18.63
2022-11-08T01:45:16.668Z,18.64
2022-11-08T01:47:42.913Z,18.64
2022-11-08T01:50:09.210Z,18.61
2022-11-08T01:52:35.714Z,18.57
2022-11-08T01:55:01.998Z,18.54
2022-11-08T01:57:28.256Z,18.50
2022-11-08T01:59:54.799Z,18.45
2022-11-08T02:02:21.112Z,18.43
2022-11-08T02:04:47.462Z,18.41
2022-11-08T02:07:13.808Z,18.38
2022-11-08T02:09:40.105Z,18.34
2022-11-08T02:12:06.427Z,18.31
2022-11-08T02:14:32.663Z,18.28
2022-11-08T02:16:58.955Z,18.24
2022-11-08T02:19:26.063Z,18.22
2022-11-08T02:21:52.569Z,18.18
2022-11-08T02:24:18.815Z,18.14
2022-11-08T02:26:45.144Z,18.11
2022-11-08T02:29:11.464Z,18.08
2022-11-08T02:31:38.540Z,18.06
2022-11-08T02:34:05.891Z,18.03
2022-11-08T02:36:33.553Z,18.02
2022-11-08T02:38:59.955Z,17.99
2022-11-08T02:41:26.588Z,17.98
2022-11-08T02:43:52.900Z,17.96
2022-11-08T02:46:19.180Z,17.94
2022-11-08T02:48:45.479Z,17.92
2022-11-08T02:51:11.930Z,17.91
2022-11-08T02:53:38.226Z,17.88
2022-11-08T02:56:04.831Z,17.85
2022-11-08T02:58:31.066Z,17.82
2022-11-08T03:00:57.424Z,17.80
2022-11-08T03:03:23.717Z,17.78
2022-11-08T03:05:50.040Z,17.76
2022-11-08T03:08:16.933Z,17.73
2022-11-08T03:10:43.687Z,17.71
2022-11-08T03:13:10.635Z,17.68
2022-11-08T03:15:36.907Z,17.67
2022-11-08T03:18:03.162Z,17.64
2022-11-08T03:20:32.789Z,17.62
2022-11-08T03:22:59.709Z,17.59
2022-11-08T03:25:26.022Z,17.56
2022-11-08T03:27:52.319Z,17.54
2022-11-08T03:30:18.610Z,17.52
2022-11-08T03:32:45.023Z,17.50
2022-11-08T03:35:11.515Z,17.49
2022-11-08T03:37:38.945Z,17.47
2022-11-08T03:40:05.276Z,17.45
2022-11-08T03:42:31.542Z,17.44
2022-11-08T03:44:57.853Z,17.41
2022-11-08T03:47:24.541Z,17.39
2022-11-08T03:49:50.820Z,17.38
2022-11-08T03:52:17.089Z,17.36
2022-11-08T03:54:43.422Z,17.35
2022-11-08T03:57:09.723Z,17.33
2022-11-08T03:59:36.089Z,17.32
2022-11-08T04:02:02.888Z,17.30
2022-11-08T04:04:29.717Z,17.27
2022-11-08T04:06:55.984Z,17.25
2022-11-08T04:09:22.327Z,17.22
2022-11-08T04:11:48.628Z,17.20
2022-11-08T04:14:14.945Z,17.18
2022-11-08T04:16:41.271Z,17.17
2022-11-08T04:19:07.544Z,17.15
2022-11-08T04:21:43.196Z,17.14
2022-11-08T04:24:09.502Z,17.12
2022-11-08T04:26:35.917Z,17.10
2022-11-08T04:29:02.170Z,17.09
2022-11-08T04:31:29.827Z,17.07
2022-11-08T04:33:56.477Z,17.05
2022-11-08T04:36:22.765Z,17.04
2022-11-08T04:38:49.134Z,17.02
2022-11-08T04:41:16.427Z,17.01
2022-11-08T04:43:42.767Z,16.99
2022-11-08T04:46:09.026Z,16.98
2022-11-08T04:48:35.351Z,16.95
2022-11-08T04:51:01.663Z,16.93
2022-11-08T04:53:28.032Z,16.92
2022-11-08T04:55:54.337Z,16.89
2022-11-08T04:58:20.802Z,16.88
2022-11-08T05:00:47.341Z,16.87
2022-11-08T05:03:13.639Z,16.86
2022-11-08T05:05:40.358Z,16.84
2022-11-08T05:08:07.668Z,16.84
2022-11-08T05:10:33.920Z,16.82
2022-11-08T05:13:00.278Z,16.81
2022-11-08T05:15:26.641Z,16.80
2022-11-08T05:17:53.012Z,16.79
2022-11-08T05:20:19.371Z,16.76
2022-11-08T05:22:45.768Z,16.76
2022-11-08T05:25:12.089Z,16.75
2022-11-08T05:27:38.471Z,16.73
2022-11-08T05:30:04.770Z,16.71
2022-11-08T05:32:31.178Z,16.70
2022-11-08T05:34:57.568Z,16.68
2022-11-08T05:37:24.147Z,16.67
2022-11-08T05:39:51.964Z,16.66
2022-11-08T05:42:18.334Z,16.64
2022-11-08T05:44:44.673Z,16.62
2022-11-08T05:47:11.305Z,16.61
2022-11-08T05:49:37.635Z,16.60
2022-11-08T05:52:04.040Z,16.59
2022-11-08T05:54:31.015Z,16.58
2022-11-08T05:56:57.481Z,16.55
2022-11-08T05:59:23.801Z,16.54
2022-11-08T06:01:50.355Z,16.53
2022-11-08T06:04:16.672Z,16.52
2022-11-08T06:06:42.989Z,16.50
2022-11-08T06:09:09.323Z,16.50
2022-11-08T06:11:35.670Z,16.49
2022-11-08T06:14:01.980Z,16.49
2022-11-08T06:16:28.775Z,16.48
2022-11-08T06:18:55.252Z,16.48
2022-11-08T06:21:22.041Z,16.48
2022-11-08T06:23:48.521Z,16.46
2022-11-08T06:26:15.003Z,16.35
2022-11-08T06:28:41.304Z,16.47
2022-11-08T06:31:07.619Z,16.48
2022-11-08T06:33:34.280Z,16.49
2022-11-08T06:36:00.972Z,16.49
2022-11-08T06:38:27.503Z,16.51
2022-11-08T06:40:53.918Z,16.52
2022-11-08T06:43:20.612Z,16.60
2022-11-08T06:45:47.533Z,16.77
2022-11-08T06:48:14.096Z,16.93
2022-11-08T06:50:40.426Z,17.08
2022-11-08T06:53:06.779Z,17.21
2022-11-08T06:55:33.104Z,17.34
2022-11-08T06:57:59.431Z,17.45
2022-11-08T07:00:25.770Z,17.62
2022-11-08T07:02:52.730Z,17.76
2022-11-08T07:05:19.180Z,17.87
2022-11-08T07:07:46.460Z,17.95
2022-11-08T07:10:12.755Z,17.99
2022-11-08T07:12:39.110Z,18.05
2022-11-08T07:15:06.401Z,18.11
2022-11-08T07:17:38.208Z,18.22
2022-11-08T07:20:05.088Z,18.33
2022-11-08T07:22:31.395Z,18.34
2022-11-08T07:25:00.879Z,18.36
2022-11-08T07:27:27.369Z,18.50
2022-11-08T07:29:54.740Z,18.61
2022-11-08T07:32:21.365Z,18.63
2022-11-08T07:34:47.734Z,18.72
2022-11-08T07:37:13.991Z,18.83
2022-11-08T07:39:40.665Z,18.81
2022-11-08T07:42:06.965Z,18.83
2022-11-08T07:44:33.296Z,18.82
2022-11-08T07:46:59.609Z,18.81
2022-11-08T07:49:27.303Z,18.82
2022-11-08T07:51:53.644Z,18.85
2022-11-08T07:54:19.980Z,18.85
2022-11-08T07:56:46.354Z,18.85
2022-11-08T07:59:12.656Z,18.87
2022-11-08T08:01:39.230Z,18.91
2022-11-08T08:04:05.719Z,18.92
2022-11-08T08:06:32.062Z,18.96
2022-11-08T08:08:58.837Z,18.98
2022-11-08T08:11:29.442Z,19.00
2022-11-08T08:13:59.009Z,19.03
2022-11-08T08:16:25.276Z,19.07
2022-11-08T08:18:56.141Z,19.10
2022-11-08T08:21:23.042Z,19.15
2022-11-08T08:23:49.318Z,19.18
2022-11-08T08:26:15.648Z,19.24
2022-11-08T08:28:42.257Z,19.29
2022-11-08T08:31:08.633Z,19.32
2022-11-08T08:33:36.525Z,19.37
2022-11-08T08:36:03.084Z,19.43
2022-11-08T08:38:29.521Z,19.48
2022-11-08T08:40:56.789Z,19.54
2022-11-08T08:43:23.209Z,19.62
2022-11-08T08:45:49.668Z,19.66
2022-11-08T08:48:16.040Z,19.70
2022-11-08T08:50:42.519Z,19.62
2022-11-08T08:53:08.884Z,19.78
2022-11-08T08:55:36.621Z,19.83
2022-11-08T08:58:03.070Z,19.88
2022-11-08T09:03:16.568Z,19.97
2022-11-08T09:05:43.377Z,19.97
2022-11-08T09:08:09.865Z,20.03
2022-11-08T09:10:36.960Z,20.09
2022-11-08T09:13:03.899Z,20.12
2022-11-08T09:15:30.374Z,20.19
2022-11-08T09:17:57.207Z,20.24
2022-11-08T09:20:23.665Z,20.28
2022-11-08T09:22:50.781Z,20.30
2022-11-08T09:25:17.058Z,20.31
2022-11-08T09:27:43.577Z,20.34
2022-11-08T09:30:10.253Z,20.39
2022-11-08T09:32:59.192Z,20.41
2022-11-08T09:35:23.453Z,20.47
2022-11-08T09:37:50.143Z,20.52
2022-11-08T09:42:47.799Z,20.50
2022-11-08T09:45:14.067Z,20.50
2022-11-08T09:47:40.514Z,20.52
2022-11-08T09:50:06.834Z,20.52
2022-11-08T09:52:33.114Z,20.52
2022-11-08T09:54:59.577Z,20.51
2022-11-08T09:57:26.599Z,20.52
2022-11-08T09:59:56.065Z,20.51
2022-11-08T10:02:22.622Z,20.49
2022-11-08T10:04:49.127Z,20.48
2022-11-08T10:07:15.522Z,20.46
2022-11-08T10:09:42.163Z,20.46
2022-11-08T10:12:08.493Z,20.46
2022-11-08T10:14:41.810Z,20.46
2022-11-08T10:17:13.340Z,20.45
2022-11-08T10:19:40.363Z,20.50
2022-11-08T10:22:06.706Z,20.59
2022-11-08T10:24:33.067Z,20.65
2022-11-08T10:26:59.833Z,20.71
2022-11-08T10:29:26.153Z,20.75
2022-11-08T10:31:52.589Z,20.73
2022-11-08T10:34:18.893Z,20.78
2022-11-08T10:36:45.452Z,20.85
2022-11-08T10:39:12.416Z,20.91
2022-11-08T10:41:38.928Z,20.96
2022-11-08T10:44:05.279Z,20.99
2022-11-08T10:46:31.837Z,21.01
2022-11-08T10:48:58.143Z,21.03
2022-11-08T10:51:24.483Z,21.08
2022-11-08T10:53:50.889Z,21.13
2022-11-08T10:56:18.275Z,21.16
2022-11-08T10:58:44.573Z,21.20
2022-11-08T11:01:11.129Z,21.23
2022-11-08T11:03:38.249Z,21.27
2022-11-08T11:06:05.636Z,21.27
2022-11-08T11:08:33.418Z,21.32
2022-11-08T11:10:59.807Z,21.35
2022-11-08T11:15:54.196Z,21.39
2022-11-08T11:18:20.620Z,21.39
2022-11-08T11:20:47.756Z,21.42
2022-11-08T11:23:14.264Z,21.44
2022-11-08T11:25:40.674Z,21.32
2022-11-08T11:28:07.143Z,21.22
2022-11-08T11:30:33.626Z,21.14
2022-11-08T11:33:00.127Z,21.06
2022-11-08T11:35:26.457Z,20.98
2022-11-08T11:37:52.764Z,20.94
2022-11-08T11:40:19.076Z,20.94
2022-11-08T11:42:46.886Z,20.93
2022-11-08T11:45:13.713Z,20.94
2022-11-08T11:47:39.985Z,20.94
2022-11-08T11:50:07.260Z,20.91
2022-11-08T11:52:33.905Z,20.90
2022-11-08T11:55:01.334Z,20.88
2022-11-08T11:57:27.581Z,20.89
2022-11-08T11:59:53.876Z,20.93
2022-11-08T12:02:20.843Z,20.92
2022-11-08T12:04:48.172Z,20.92
2022-11-08T12:07:14.459Z,20.91
2022-11-08T12:09:41.996Z,20.92
2022-11-08T12:12:08.326Z,20.89
2022-11-08T12:14:35.384Z,20.88
2022-11-08T12:17:02.213Z,20.89
2022-11-08T12:19:28.578Z,20.88
2022-11-08T12:21:54.929Z,20.87
2022-11-08T12:24:21.541Z,20.87
2022-11-08T12:26:49.028Z,20.88
2022-11-08T12:29:15.352Z,20.87
2022-11-08T12:31:42.228Z,20.82
2022-11-08T12:34:09.416Z,20.84
2022-11-08T12:36:35.701Z,20.77
2022-11-08T12:39:01.959Z,20.75
2022-11-08T12:41:28.905Z,20.73
2022-11-08T12:43:55.160Z,20.66
2022-11-08T12:46:21.735Z,20.61
2022-11-08T12:48:48.125Z,20.57
2022-11-08T12:51:14.390Z,20.53
2022-11-08T12:53:40.839Z,20.51
2022-11-08T12:56:08.223Z,20.48
2022-11-08T12:58:34.791Z,20.51
2022-11-08T13:01:01.161Z,20.52
2022-11-08T13:03:28.680Z,20.53
2022-11-08T13:05:54.969Z,20.49
2022-11-08T13:08:22.181Z,20.49
2022-11-08T13:10:49.509Z,20.46
2022-11-08T13:13:16.312Z,20.41
2022-11-08T13:15:42.569Z,20.38
2022-11-08T13:18:09.234Z,20.36
2022-11-08T13:20:35.612Z,20.31
2022-11-08T13:23:01.894Z,20.26
2022-11-08T13:25:28.162Z,20.23
2022-11-08T13:27:54.498Z,20.19
2022-11-08T13:30:20.785Z,20.14
2022-11-08T13:32:51.238Z,20.09
2022-11-08T13:35:20.075Z,20.07
2022-11-08T13:37:46.426Z,20.03
2022-11-08T13:40:12.722Z,19.99
2022-11-08T13:42:42.058Z,19.96
2022-11-08T13:45:08.624Z,19.92
2022-11-08T13:47:35.044Z,19.91
2022-11-08T13:50:01.557Z,19.87
2022-11-08T13:52:28.379Z,19.81
2022-11-08T13:54:54.695Z,19.78
2022-11-08T13:57:22.045Z,19.77
2022-11-08T13:59:49.425Z,19.73
2022-11-08T14:02:16.085Z,19.72
2022-11-08T14:04:42.415Z,19.71
2022-11-08T14:07:08.818Z,19.67
2022-11-08T14:09:35.207Z,19.64
2022-11-08T14:12:02.300Z,19.62
2022-11-08T14:14:29.314Z,19.65
2022-11-08T14:16:55.892Z,19.69
2022-11-08T14:19:22.160Z,19.76
2022-11-08T14:21:48.732Z,19.81
2022-11-08T14:24:15.159Z,19.87
2022-11-08T14:26:41.472Z,19.93
2022-11-08T14:29:07.810Z,19.98
2022-11-08T14:31:34.112Z,20.02
2022-11-08T14:34:00.416Z,20.05
2022-11-08T14:36:26.673Z,20.08
2022-11-08T14:38:52.972Z,20.10
2022-11-08T14:41:19.295Z,20.12
2022-11-08T14:43:45.599Z,20.14
2022-11-08T14:46:12.637Z,20.16
2022-11-08T14:48:38.939Z,20.19
2022-11-08T14:51:05.334Z,20.19
2022-11-08T14:53:32.414Z,20.21
2022-11-08T14:55:58.719Z,20.22
2022-11-08T14:58:25.752Z,20.23
2022-11-08T15:00:52.080Z,20.24
2022-11-08T15:03:18.641Z,20.25
2022-11-08T15:05:45.141Z,20.26
2022-11-08T15:08:11.458Z,20.25
2022-11-08T15:10:37.805Z,20.25
2022-11-08T15:13:04.191Z,20.25
2022-11-08T15:15:30.504Z,20.26
2022-11-08T15:17:56.840Z,20.24
2022-11-08T15:20:23.283Z,20.24
2022-11-08T15:22:54.130Z,20.25
2022-11-08T15:25:22.840Z,20.24
2022-11-08T15:27:49.614Z,20.24
2022-11-08T15:30:16.281Z,20.23
2022-11-08T15:32:42.615Z,20.24
2022-11-08T15:35:08.958Z,20.22
2022-11-08T15:37:36.507Z,20.22
2022-11-08T15:40:02.985Z,20.22
2022-11-08T15:42:29.602Z,20.21
2022-11-08T15:44:55.932Z,20.21
2022-11-08T15:47:22.530Z,20.20
2022-11-08T15:49:49.872Z,20.20
2022-11-08T15:52:21.348Z,20.20
2022-11-08T15:54:47.845Z,20.19
2022-11-08T15:57:14.198Z,20.20
2022-11-08T15:59:40.549Z,20.18
2022-11-08T16:02:06.920Z,20.19
2022-11-08T16:04:33.273Z,20.17
2022-11-08T16:06:59.748Z,20.17
2022-11-08T16:09:26.109Z,20.15
2022-11-08T16:11:52.335Z,20.15
2022-11-08T16:14:18.659Z,20.16
2022-11-08T16:16:44.990Z,20.14
2022-11-08T16:19:11.370Z,20.15
2022-11-08T16:21:37.774Z,20.16
2022-11-08T16:24:04.022Z,20.17
2022-11-08T16:26:30.526Z,20.17
2022-11-08T16:28:56.798Z,20.17
2022-11-08T16:31:23.174Z,20.19
2022-11-08T16:33:49.439Z,20.20
2022-11-08T16:36:16.060Z,20.21
2022-11-08T16:38:42.351Z,20.22
2022-11-08T16:41:08.881Z,20.23
2022-11-08T16:43:35.193Z,20.25
2022-11-08T16:46:06.406Z,20.25
2022-11-08T16:48:33.359Z,20.26
2022-11-08T16:50:59.702Z,20.28
2022-11-08T16:53:26.044Z,20.29
2022-11-08T16:55:52.480Z,20.30
2022-11-08T16:58:19.702Z,20.31
2022-11-08T17:00:46.186Z,20.32
2022-11-08T17:03:12.486Z,20.34
2022-11-08T17:05:38.855Z,20.33
2022-11-08T17:08:05.251Z,20.35
2022-11-08T17:10:31.509Z,20.35
2022-11-08T17:12:58.200Z,20.35
2022-11-08T17:15:24.922Z,20.36
2022-11-08T17:17:51.373Z,20.37
2022-11-08T17:20:17.926Z,20.37
2022-11-08T17:22:44.170Z,20.38
2022-11-08T17:25:10.501Z,20.38
2022-11-08T17:27:36.821Z,20.38
2022-11-08T17:30:03.709Z,20.38
2022-11-08T17:32:30.035Z,20.38
2022-11-08T17:34:56.340Z,20.38
2022-11-08T17:37:22.974Z,20.37
2022-11-08T17:39:49.353Z,20.37
2022-11-08T17:42:15.710Z,20.37
2022-11-08T17:44:42.003Z,20.36
2022-11-08T17:47:08.661Z,20.36
2022-11-08T17:49:38.710Z,20.35
2022-11-08T17:52:08.066Z,20.36
2022-11-08T17:54:34.460Z,20.35
2022-11-08T17:57:00.944Z,20.36
2022-11-08T17:59:27.298Z,20.34
2022-11-08T18:01:53.691Z,20.34
2022-11-08T18:04:20.306Z,20.35
2022-11-08T18:06:46.819Z,20.33
2022-11-08T18:09:13.347Z,20.33
2022-11-08T18:11:39.737Z,20.32
2022-11-08T18:14:06.086Z,20.32
2022-11-08T18:16:32.373Z,20.32
2022-11-08T18:18:58.772Z,20.32
2022-11-08T18:21:25.045Z,20.32
2022-11-08T18:23:51.374Z,20.32
2022-11-08T18:26:18.926Z,20.32
2022-11-08T18:28:45.268Z,20.31
2022-11-08T18:31:11.546Z,20.31
2022-11-08T18:33:38.032Z,20.31
2022-11-08T18:36:04.831Z,20.30
2022-11-08T18:38:31.464Z,20.30
2022-11-08T18:40:58.963Z,20.30
2022-11-08T18:43:25.248Z,20.31
2022-11-08T18:45:51.480Z,20.30
2022-11-08T18:48:17.744Z,20.30
2022-11-08T18:50:44.013Z,20.31
2022-11-08T18:53:10.302Z,20.31
2022-11-08T18:55:36.596Z,20.33
2022-11-08T18:58:03.137Z,20.34
2022-11-08T19:00:29.564Z,20.35
2022-11-08T19:02:55.930Z,20.36
2022-11-08T19:05:22.410Z,20.37
2022-11-08T19:07:49.316Z,20.38
2022-11-08T19:10:15.975Z,20.39
2022-11-08T19:12:42.291Z,20.40
2022-11-08T19:15:08.580Z,20.42
2022-11-08T19:17:34.911Z,20.43
2022-11-08T19:20:01.549Z,20.44
2022-11-08T19:22:28.717Z,20.46
2022-11-08T19:24:55.836Z,20.46
2022-11-08T19:27:22.118Z,20.48
2022-11-08T19:29:48.453Z,20.50
2022-11-08T19:32:14.714Z,20.50
2022-11-08T19:34:40.987Z,20.51
2022-11-08T19:37:07.351Z,20.52
2022-11-08T19:39:33.643Z,20.52
2022-11-08T19:41:59.920Z,20.52
2022-11-08T19:44:26.266Z,20.52
2022-11-08T19:46:52.543Z,20.53
2022-11-08T19:49:19.610Z,20.53
2022-11-08T19:51:45.903Z,20.52
2022-11-08T19:54:12.203Z,20.52
2022-11-08T19:57:03.249Z,20.52
2022-11-08T19:59:24.802Z,20.52
2022-11-08T20:01:52.075Z,20.52
2022-11-08T20:04:18.760Z,20.52
2022-11-08T20:06:45.226Z,20.52
2022-11-08T20:09:11.587Z,20.52
2022-11-08T20:11:37.882Z,20.52
2022-11-08T20:14:04.150Z,20.52
2022-11-08T20:16:30.391Z,20.52
2022-11-08T20:18:57.490Z,20.52
2022-11-08T20:21:23.849Z,20.52
2022-11-08T20:23:50.243Z,20.52
2022-11-08T20:26:16.495Z,20.52
2022-11-08T20:28:55.354Z,20.51
2022-11-08T20:31:27.474Z,20.50
2022-11-08T20:33:53.966Z,20.50
2022-11-08T20:36:20.424Z,20.50
2022-11-08T20:38:46.706Z,20.49
2022-11-08T20:41:13.016Z,20.49
2022-11-08T20:43:39.300Z,20.48
2022-11-08T20:46:05.710Z,20.49
2022-11-08T20:48:32.031Z,20.47
2022-11-08T20:50:59.011Z,20.46
2022-11-08T20:53:25.416Z,20.46
2022-11-08T20:55:51.806Z,20.45
2022-11-08T20:58:21.477Z,20.45
2022-11-08T21:01:04.128Z,20.44
2022-11-08T21:03:30.432Z,20.44
2022-11-08T21:05:56.678Z,20.45
2022-11-08T21:11:09.404Z,20.45
2022-11-08T21:13:36.347Z,20.45
2022-11-08T21:16:26.736Z,20.46
2022-11-08T21:18:49.541Z,20.45
2022-11-08T21:21:15.876Z,20.46
2022-11-08T21:23:42.328Z,20.47
2022-11-08T21:26:08.885Z,20.47
2022-11-08T21:28:35.271Z,20.48
2022-11-08T21:31:01.662Z,20.49
2022-11-08T21:33:28.576Z,20.49
2022-11-08T21:35:54.932Z,20.49
2022-11-08T21:38:21.513Z,20.50
2022-11-08T21:40:48.040Z,20.50
2022-11-08T21:43:16.712Z,20.50
2022-11-08T21:45:42.968Z,20.50
2022-11-08T21:48:15.026Z,20.51
2022-11-08T21:50:41.802Z,20.51
2022-11-08T21:53:08.056Z,20.52
2022-11-08T21:55:34.405Z,20.52
2022-11-08T21:58:00.792Z,20.53
2022-11-08T22:00:27.141Z,20.54
2022-11-08T22:02:53.655Z,20.54
2022-11-08T22:05:19.956Z,20.54
2022-11-08T22:07:46.298Z,20.55
2022-11-08T22:10:12.571Z,20.55
2022-11-08T22:12:38.873Z,20.56
2022-11-08T22:15:05.258Z,20.55
2022-11-08T22:17:31.549Z,20.55
2022-11-08T22:19:57.868Z,20.57
2022-11-08T22:22:48.068Z,20.56
2022-11-08T22:25:19.065Z,20.58
2022-11-08T22:52:31.372Z,20.28
2022-11-08T23:20:08.339Z,19.84
2022-11-08T23:22:34.648Z,19.80
2022-11-08T23:25:00.937Z,19.77
2022-11-08T23:27:27.429Z,19.74
2022-11-08T23:29:53.710Z,19.72
2022-11-08T23:32:20.056Z,19.69
2022-11-08T23:34:46.430Z,19.68
2022-11-08T23:37:12.742Z,19.65
2022-11-08T23:39:39.044Z,19.64
2022-11-08T23:42:05.381Z,19.61
2022-11-08T23:44:32.562Z,19.58
2022-11-08T23:46:58.897Z,19.57
2022-11-08T23:49:25.191Z,19.56
2022-11-08T23:51:51.474Z,19.51
2022-11-08T23:54:17.824Z,19.50
2022-11-08T23:56:44.150Z,19.48
2022-11-08T23:59:10.522Z,19.46
